sensor_id;sensor_type;location;lat;lon;timestamp;temperature;humidity
76120;DHT22;64852;48.092;-1.640;2023-03-29T00:01:16;14.20;99.90
76120;DHT22;64852;48.092;-1.640;2023-03-29T00:03:42;14.30;99.90
76120;DHT22;64852;48.092;-1.640;2023-03-29T00:06:09;14.20;99.90
76120;DHT22;64852;48.092;-1.640;2023-03-29T00:08:39;14.10;99.90
76120;DHT22;64852;48.092;-1.640;2023-03-29T00:11:05;14.00;99.90
76120;DHT22;64852;48.092;-1.640;2023-03-29T00:13:31;14.10;99.90
76120;DHT22;64852;48.092;-1.640;2023-03-29T00:15:57;14.10;99.90
76120;DHT22;64852;48.092;-1.640;2023-03-29T00:18:22;14.10;99.90
76120;DHT22;64852;48.092;-1.640;2023-03-29T00:20:55;14.10;99.90
76120;DHT22;64852;48.092;-1.640;2023-03-29T00:23:21;14.00;99.90
76120;DHT22;64852;48.092;-1.640;2023-03-29T00:25:47;14.20;99.90
76120;DHT22;64852;48.092;-1.640;2023-03-29T00:28:12;14.10;99.90
76120;DHT22;64852;48.092;-1.640;2023-03-29T00:30:39;14.00;99.90
76120;DHT22;64852;48.092;-1.640;2023-03-29T00:33:04;14.00;99.90
76120;DHT22;64852;48.092;-1.640;2023-03-29T00:35:30;13.90;99.90
76120;DHT22;64852;48.092;-1.640;2023-03-29T00:37:55;14.00;99.90
76120;DHT22;64852;48.092;-1.640;2023-03-29T00:40:22;14.00;99.90
76120;DHT22;64852;48.092;-1.640;2023-03-29T00:42:47;14.00;99.90
76120;DHT22;64852;48.092;-1.640;2023-03-29T00:45:20;14.00;99.90
76120;DHT22;64852;48.092;-1.640;2023-03-29T00:52:38;14.00;99.90
76120;DHT22;64852;48.092;-1.640;2023-03-29T00:55:07;14.00;99.90
76120;DHT22;64852;48.092;-1.640;2023-03-29T00:57:34;14.10;99.90
76120;DHT22;64852;48.092;-1.640;2023-03-29T01:00:02;13.90;99.90
76120;DHT22;64852;48.092;-1.640;2023-03-29T01:02:29;14.00;99.90
76120;DHT22;64852;48.092;-1.640;2023-03-29T01:05:03;14.00;99.90
76120;DHT22;64852;48.092;-1.640;2023-03-29T01:07:52;14.00;99.90
76120;DHT22;64852;48.092;-1.640;2023-03-29T01:10:20;13.90;99.90
76120;DHT22;64852;48.092;-1.640;2023-03-29T01:12:47;13.80;99.90
76120;DHT22;64852;48.092;-1.640;2023-03-29T01:15:16;14.20;99.90
76120;DHT22;64852;48.092;-1.640;2023-03-29T01:17:43;13.80;99.90
76120;DHT22;64852;48.092;-1.640;2023-03-29T01:20:22;13.90;99.90
76120;DHT22;64852;48.092;-1.640;2023-03-29T01:22:55;13.90;99.90
76120;DHT22;64852;48.092;-1.640;2023-03-29T01:28:07;13.90;99.90
76120;DHT22;64852;48.092;-1.640;2023-03-29T01:30:54;14.00;99.90
76120;DHT22;64852;48.092;-1.640;2023-03-29T01:33:23;13.90;99.90
76120;DHT22;64852;48.092;-1.640;2023-03-29T01:35:56;13.90;99.90
76120;DHT22;64852;48.092;-1.640;2023-03-29T01:41:03;13.90;99.90
76120;DHT22;64852;48.092;-1.640;2023-03-29T01:46:06;14.00;99.90
76120;DHT22;64852;48.092;-1.640;2023-03-29T01:48:35;14.10;99.90
76120;DHT22;64852;48.092;-1.640;2023-03-29T01:51:08;14.10;99.90
76120;DHT22;64852;48.092;-1.640;2023-03-29T01:53:40;14.10;99.90
76120;DHT22;64852;48.092;-1.640;2023-03-29T01:56:11;14.10;99.90
76120;DHT22;64852;48.092;-1.640;2023-03-29T01:58:39;14.20;99.90
76120;DHT22;64852;48.092;-1.640;2023-03-29T02:01:05;14.10;99.90
76120;DHT22;64852;48.092;-1.640;2023-03-29T02:03:34;14.30;99.90
76120;DHT22;64852;48.092;-1.640;2023-03-29T02:06:10;14.10;99.90
76120;DHT22;64852;48.092;-1.640;2023-03-29T02:08:37;14.20;99.90
76120;DHT22;64852;48.092;-1.640;2023-03-29T02:11:03;14.40;99.90
76120;DHT22;64852;48.092;-1.640;2023-03-29T02:13:29;14.10;99.90
76120;DHT22;64852;48.092;-1.640;2023-03-29T02:15:55;14.10;99.90
76120;DHT22;64852;48.092;-1.640;2023-03-29T02:18:21;14.10;99.90
76120;DHT22;64852;48.092;-1.640;2023-03-29T02:20:47;14.20;99.90
76120;DHT22;64852;48.092;-1.640;2023-03-29T02:25:45;14.10;99.90
76120;DHT22;64852;48.092;-1.640;2023-03-29T02:28:12;14.10;99.90
76120;DHT22;64852;48.092;-1.640;2023-03-29T02:33:05;14.10;99.90
76120;DHT22;64852;48.092;-1.640;2023-03-29T02:35:33;14.00;99.90
76120;DHT22;64852;48.092;-1.640;2023-03-29T02:38:04;14.00;99.90
76120;DHT22;64852;48.092;-1.640;2023-03-29T02:40:31;14.00;99.90
76120;DHT22;64852;48.092;-1.640;2023-03-29T02:42:59;14.00;99.90
76120;DHT22;64852;48.092;-1.640;2023-03-29T02:45:25;14.00;99.90
76120;DHT22;64852;48.092;-1.640;2023-03-29T02:47:53;14.10;99.90
76120;DHT22;64852;48.092;-1.640;2023-03-29T02:50:19;14.00;99.90
76120;DHT22;64852;48.092;-1.640;2023-03-29T02:52:50;14.00;99.90
76120;DHT22;64852;48.092;-1.640;2023-03-29T02:55:17;14.00;99.90
76120;DHT22;64852;48.092;-1.640;2023-03-29T02:57:43;14.00;99.90
76120;DHT22;64852;48.092;-1.640;2023-03-29T03:00:09;13.30;99.90
76120;DHT22;64852;48.092;-1.640;2023-03-29T03:02:36;14.00;99.90
76120;DHT22;64852;48.092;-1.640;2023-03-29T03:05:04;14.00;99.90
76120;DHT22;64852;48.092;-1.640;2023-03-29T03:07:30;14.00;99.90
76120;DHT22;64852;48.092;-1.640;2023-03-29T03:09:56;14.00;99.90
76120;DHT22;64852;48.092;-1.640;2023-03-29T03:12:22;14.00;99.90
76120;DHT22;64852;48.092;-1.640;2023-03-29T03:14:47;14.00;99.90
76120;DHT22;64852;48.092;-1.640;2023-03-29T03:17:13;14.00;99.90
76120;DHT22;64852;48.092;-1.640;2023-03-29T03:19:39;14.20;99.90
76120;DHT22;64852;48.092;-1.640;2023-03-29T03:22:04;13.90;99.90
76120;DHT22;64852;48.092;-1.640;2023-03-29T03:24:31;14.00;99.90
76120;DHT22;64852;48.092;-1.640;2023-03-29T03:26:57;14.00;99.90
76120;DHT22;64852;48.092;-1.640;2023-03-29T03:29:24;14.00;99.90
76120;DHT22;64852;48.092;-1.640;2023-03-29T03:31:49;13.80;99.90
76120;DHT22;64852;48.092;-1.640;2023-03-29T03:34:17;13.80;99.90
76120;DHT22;64852;48.092;-1.640;2023-03-29T03:36:43;13.80;99.90
76120;DHT22;64852;48.092;-1.640;2023-03-29T03:39:11;13.80;99.90
76120;DHT22;64852;48.092;-1.640;2023-03-29T03:41:37;13.70;99.90
76120;DHT22;64852;48.092;-1.640;2023-03-29T03:44:03;13.60;99.90
76120;DHT22;64852;48.092;-1.640;2023-03-29T03:46:28;13.60;99.90
76120;DHT22;64852;48.092;-1.640;2023-03-29T03:48:54;13.70;99.90
76120;DHT22;64852;48.092;-1.640;2023-03-29T03:51:19;13.70;99.90
76120;DHT22;64852;48.092;-1.640;2023-03-29T03:53:45;13.60;99.90
76120;DHT22;64852;48.092;-1.640;2023-03-29T03:56:11;13.60;99.90
76120;DHT22;64852;48.092;-1.640;2023-03-29T03:58:37;13.60;99.90
76120;DHT22;64852;48.092;-1.640;2023-03-29T04:01:03;13.70;99.90
76120;DHT22;64852;48.092;-1.640;2023-03-29T04:03:29;13.70;99.90
76120;DHT22;64852;48.092;-1.640;2023-03-29T04:05:58;13.70;99.90
76120;DHT22;64852;48.092;-1.640;2023-03-29T04:08:23;13.70;99.90
76120;DHT22;64852;48.092;-1.640;2023-03-29T04:10:52;13.70;99.90
76120;DHT22;64852;48.092;-1.640;2023-03-29T04:13:18;13.70;99.90
76120;DHT22;64852;48.092;-1.640;2023-03-29T04:15:44;13.70;99.90
76120;DHT22;64852;48.092;-1.640;2023-03-29T04:18:10;13.60;99.90
76120;DHT22;64852;48.092;-1.640;2023-03-29T04:20:36;13.60;99.90
76120;DHT22;64852;48.092;-1.640;2023-03-29T04:23:02;13.60;99.90
76120;DHT22;64852;48.092;-1.640;2023-03-29T04:25:28;13.60;99.90
76120;DHT22;64852;48.092;-1.640;2023-03-29T04:27:53;13.80;99.90
76120;DHT22;64852;48.092;-1.640;2023-03-29T04:30:19;13.70;99.90
76120;DHT22;64852;48.092;-1.640;2023-03-29T04:32:45;13.70;99.90
76120;DHT22;64852;48.092;-1.640;2023-03-29T04:35:11;13.70;99.90
76120;DHT22;64852;48.092;-1.640;2023-03-29T04:37:37;13.70;99.90
76120;DHT22;64852;48.092;-1.640;2023-03-29T04:40:07;13.80;99.90
76120;DHT22;64852;48.092;-1.640;2023-03-29T04:42:34;13.70;99.90
76120;DHT22;64852;48.092;-1.640;2023-03-29T04:45:00;13.50;99.90
76120;DHT22;64852;48.092;-1.640;2023-03-29T04:47:25;13.40;99.90
76120;DHT22;64852;48.092;-1.640;2023-03-29T04:49:54;13.70;99.90
76120;DHT22;64852;48.092;-1.640;2023-03-29T04:52:20;13.60;99.90
76120;DHT22;64852;48.092;-1.640;2023-03-29T04:54:46;13.60;99.90
76120;DHT22;64852;48.092;-1.640;2023-03-29T04:57:11;13.60;99.90
76120;DHT22;64852;48.092;-1.640;2023-03-29T04:59:37;13.50;99.90
76120;DHT22;64852;48.092;-1.640;2023-03-29T05:02:02;13.60;99.90
76120;DHT22;64852;48.092;-1.640;2023-03-29T05:04:29;13.40;99.90
76120;DHT22;64852;48.092;-1.640;2023-03-29T05:06:55;13.50;99.90
76120;DHT22;64852;48.092;-1.640;2023-03-29T05:09:22;13.40;99.90
76120;DHT22;64852;48.092;-1.640;2023-03-29T05:11:47;13.40;99.90
76120;DHT22;64852;48.092;-1.640;2023-03-29T05:14:13;13.30;99.90
76120;DHT22;64852;48.092;-1.640;2023-03-29T05:16:38;13.40;99.90
76120;DHT22;64852;48.092;-1.640;2023-03-29T05:19:06;13.50;99.90
76120;DHT22;64852;48.092;-1.640;2023-03-29T05:21:33;13.60;99.90
76120;DHT22;64852;48.092;-1.640;2023-03-29T05:23:59;13.30;99.90
76120;DHT22;64852;48.092;-1.640;2023-03-29T05:26:25;13.40;99.90
76120;DHT22;64852;48.092;-1.640;2023-03-29T05:28:52;13.30;99.90
76120;DHT22;64852;48.092;-1.640;2023-03-29T05:31:18;13.10;99.90
76120;DHT22;64852;48.092;-1.640;2023-03-29T05:33:45;13.00;99.90
76120;DHT22;64852;48.092;-1.640;2023-03-29T05:36:13;13.10;99.90
76120;DHT22;64852;48.092;-1.640;2023-03-29T05:38:39;13.10;99.90
76120;DHT22;64852;48.092;-1.640;2023-03-29T05:41:05;13.00;99.90
76120;DHT22;64852;48.092;-1.640;2023-03-29T05:43:31;13.00;99.90
76120;DHT22;64852;48.092;-1.640;2023-03-29T05:45:56;12.90;99.90
76120;DHT22;64852;48.092;-1.640;2023-03-29T05:48:22;12.90;99.90
76120;DHT22;64852;48.092;-1.640;2023-03-29T05:50:48;12.80;99.90
76120;DHT22;64852;48.092;-1.640;2023-03-29T05:53:15;12.90;99.90
76120;DHT22;64852;48.092;-1.640;2023-03-29T05:55:40;12.80;99.90
76120;DHT22;64852;48.092;-1.640;2023-03-29T05:58:06;12.70;99.90
76120;DHT22;64852;48.092;-1.640;2023-03-29T06:00:32;12.50;99.90
76120;DHT22;64852;48.092;-1.640;2023-03-29T06:03:01;12.60;99.90
76120;DHT22;64852;48.092;-1.640;2023-03-29T06:05:27;12.50;99.90
76120;DHT22;64852;48.092;-1.640;2023-03-29T06:07:52;12.50;99.90
76120;DHT22;64852;48.092;-1.640;2023-03-29T06:10:18;12.50;99.90
76120;DHT22;64852;48.092;-1.640;2023-03-29T06:12:44;12.40;99.90
76120;DHT22;64852;48.092;-1.640;2023-03-29T06:15:11;12.40;99.90
76120;DHT22;64852;48.092;-1.640;2023-03-29T06:17:37;12.30;99.90
76120;DHT22;64852;48.092;-1.640;2023-03-29T06:20:04;12.20;99.90
76120;DHT22;64852;48.092;-1.640;2023-03-29T06:22:36;12.30;99.90
76120;DHT22;64852;48.092;-1.640;2023-03-29T06:25:02;12.10;99.90
76120;DHT22;64852;48.092;-1.640;2023-03-29T06:27:28;12.00;99.90
76120;DHT22;64852;48.092;-1.640;2023-03-29T06:29:54;12.10;99.90
76120;DHT22;64852;48.092;-1.640;2023-03-29T06:32:19;12.10;99.90
76120;DHT22;64852;48.092;-1.640;2023-03-29T06:34:45;12.10;99.90
76120;DHT22;64852;48.092;-1.640;2023-03-29T06:37:10;12.10;99.90
76120;DHT22;64852;48.092;-1.640;2023-03-29T06:39:36;12.10;99.90
76120;DHT22;64852;48.092;-1.640;2023-03-29T06:42:01;12.10;99.90
76120;DHT22;64852;48.092;-1.640;2023-03-29T06:44:27;12.20;99.90
76120;DHT22;64852;48.092;-1.640;2023-03-29T06:46:53;12.20;99.90
76120;DHT22;64852;48.092;-1.640;2023-03-29T06:49:18;12.30;99.90
76120;DHT22;64852;48.092;-1.640;2023-03-29T06:51:44;12.30;99.90
76120;DHT22;64852;48.092;-1.640;2023-03-29T06:54:10;12.40;99.90
76120;DHT22;64852;48.092;-1.640;2023-03-29T06:56:35;12.50;99.90
76120;DHT22;64852;48.092;-1.640;2023-03-29T06:59:01;12.50;99.90
76120;DHT22;64852;48.092;-1.640;2023-03-29T07:01:27;12.70;99.90
76120;DHT22;64852;48.092;-1.640;2023-03-29T07:03:53;12.60;99.90
76120;DHT22;64852;48.092;-1.640;2023-03-29T07:06:19;12.70;99.90
76120;DHT22;64852;48.092;-1.640;2023-03-29T07:08:46;12.70;99.90
76120;DHT22;64852;48.092;-1.640;2023-03-29T07:11:12;12.70;99.90
76120;DHT22;64852;48.092;-1.640;2023-03-29T07:13:39;12.80;99.90
76120;DHT22;64852;48.092;-1.640;2023-03-29T07:16:07;12.60;99.90
76120;DHT22;64852;48.092;-1.640;2023-03-29T07:18:39;12.60;99.90
76120;DHT22;64852;48.092;-1.640;2023-03-29T07:21:06;12.70;99.90
76120;DHT22;64852;48.092;-1.640;2023-03-29T07:23:32;12.70;99.90
76120;DHT22;64852;48.092;-1.640;2023-03-29T07:25:57;12.70;99.90
76120;DHT22;64852;48.092;-1.640;2023-03-29T07:28:23;12.80;99.90
76120;DHT22;64852;48.092;-1.640;2023-03-29T07:30:48;12.80;99.90
76120;DHT22;64852;48.092;-1.640;2023-03-29T07:33:14;12.80;99.90
76120;DHT22;64852;48.092;-1.640;2023-03-29T07:35:40;12.90;99.90
76120;DHT22;64852;48.092;-1.640;2023-03-29T07:38:10;13.20;99.90
76120;DHT22;64852;48.092;-1.640;2023-03-29T07:40:36;12.90;99.90
76120;DHT22;64852;48.092;-1.640;2023-03-29T07:43:01;13.00;99.90
76120;DHT22;64852;48.092;-1.640;2023-03-29T07:45:31;13.10;99.90
76120;DHT22;64852;48.092;-1.640;2023-03-29T07:47:57;13.00;99.90
76120;DHT22;64852;48.092;-1.640;2023-03-29T07:50:23;13.00;99.90
76120;DHT22;64852;48.092;-1.640;2023-03-29T07:52:49;13.00;99.90
76120;DHT22;64852;48.092;-1.640;2023-03-29T07:55:15;13.10;99.90
76120;DHT22;64852;48.092;-1.640;2023-03-29T07:57:41;13.10;99.90
76120;DHT22;64852;48.092;-1.640;2023-03-29T08:00:08;13.20;99.90
76120;DHT22;64852;48.092;-1.640;2023-03-29T08:02:41;13.20;99.90
76120;DHT22;64852;48.092;-1.640;2023-03-29T08:05:07;13.20;99.90
76120;DHT22;64852;48.092;-1.640;2023-03-29T08:07:33;13.30;99.90
76120;DHT22;64852;48.092;-1.640;2023-03-29T08:09:58;13.30;99.90
76120;DHT22;64852;48.092;-1.640;2023-03-29T08:12:24;13.40;99.90
76120;DHT22;64852;48.092;-1.640;2023-03-29T08:14:49;13.40;99.90
76120;DHT22;64852;48.092;-1.640;2023-03-29T08:17:15;13.40;99.90
76120;DHT22;64852;48.092;-1.640;2023-03-29T08:19:40;13.40;99.90
76120;DHT22;64852;48.092;-1.640;2023-03-29T08:22:06;13.50;99.90
76120;DHT22;64852;48.092;-1.640;2023-03-29T08:24:31;13.50;99.90
76120;DHT22;64852;48.092;-1.640;2023-03-29T08:26:57;13.60;99.90
76120;DHT22;64852;48.092;-1.640;2023-03-29T08:29:22;13.70;99.90
76120;DHT22;64852;48.092;-1.640;2023-03-29T08:31:48;13.60;99.90
76120;DHT22;64852;48.092;-1.640;2023-03-29T08:34:14;13.80;99.90
76120;DHT22;64852;48.092;-1.640;2023-03-29T08:36:40;13.80;99.90
76120;DHT22;64852;48.092;-1.640;2023-03-29T08:39:06;13.90;99.90
76120;DHT22;64852;48.092;-1.640;2023-03-29T08:41:42;13.80;99.90
76120;DHT22;64852;48.092;-1.640;2023-03-29T08:44:19;14.00;99.90
76120;DHT22;64852;48.092;-1.640;2023-03-29T08:46:49;14.00;99.90
76120;DHT22;64852;48.092;-1.640;2023-03-29T08:49:16;14.00;99.90
76120;DHT22;64852;48.092;-1.640;2023-03-29T08:51:44;14.00;99.90
76120;DHT22;64852;48.092;-1.640;2023-03-29T08:56:37;14.20;99.90
76120;DHT22;64852;48.092;-1.640;2023-03-29T08:59:03;14.20;99.90
76120;DHT22;64852;48.092;-1.640;2023-03-29T09:01:32;14.10;99.90
76120;DHT22;64852;48.092;-1.640;2023-03-29T09:04:03;14.10;99.90
76120;DHT22;64852;48.092;-1.640;2023-03-29T09:06:30;14.20;99.90
76120;DHT22;64852;48.092;-1.640;2023-03-29T09:08:55;14.20;99.90
76120;DHT22;64852;48.092;-1.640;2023-03-29T09:14:00;14.20;99.90
76120;DHT22;64852;48.092;-1.640;2023-03-29T09:26:40;14.20;99.90
76120;DHT22;64852;48.092;-1.640;2023-03-29T09:31:54;14.20;99.90
76120;DHT22;64852;48.092;-1.640;2023-03-29T09:34:22;14.30;99.90
76120;DHT22;64852;48.092;-1.640;2023-03-29T09:36:50;14.30;99.90
76120;DHT22;64852;48.092;-1.640;2023-03-29T09:39:16;14.40;99.90
76120;DHT22;64852;48.092;-1.640;2023-03-29T09:41:45;14.60;99.90
76120;DHT22;64852;48.092;-1.640;2023-03-29T09:44:16;14.60;99.90
76120;DHT22;64852;48.092;-1.640;2023-03-29T09:46:43;14.60;99.90
76120;DHT22;64852;48.092;-1.640;2023-03-29T09:49:13;14.60;99.90
76120;DHT22;64852;48.092;-1.640;2023-03-29T09:51:41;14.60;99.90
76120;DHT22;64852;48.092;-1.640;2023-03-29T09:54:09;14.60;99.90
76120;DHT22;64852;48.092;-1.640;2023-03-29T09:56:35;14.70;99.90
76120;DHT22;64852;48.092;-1.640;2023-03-29T09:59:00;14.70;99.90
76120;DHT22;64852;48.092;-1.640;2023-03-29T10:01:32;14.80;99.90
76120;DHT22;64852;48.092;-1.640;2023-03-29T10:03:59;14.80;99.90
76120;DHT22;64852;48.092;-1.640;2023-03-29T10:06:24;14.80;99.90
76120;DHT22;64852;48.092;-1.640;2023-03-29T10:08:54;14.90;99.90
76120;DHT22;64852;48.092;-1.640;2023-03-29T10:11:29;15.10;99.90
76120;DHT22;64852;48.092;-1.640;2023-03-29T10:13:58;15.10;99.90
76120;DHT22;64852;48.092;-1.640;2023-03-29T10:16:28;15.20;99.90
76120;DHT22;64852;48.092;-1.640;2023-03-29T10:18:54;15.30;99.90
76120;DHT22;64852;48.092;-1.640;2023-03-29T10:21:20;15.50;99.90
76120;DHT22;64852;48.092;-1.640;2023-03-29T10:23:55;15.50;99.90
76120;DHT22;64852;48.092;-1.640;2023-03-29T10:26:28;15.60;99.90
76120;DHT22;64852;48.092;-1.640;2023-03-29T10:28:56;15.60;99.90
76120;DHT22;64852;48.092;-1.640;2023-03-29T10:31:24;17.40;99.90
76120;DHT22;64852;48.092;-1.640;2023-03-29T10:33:56;15.60;99.90
76120;DHT22;64852;48.092;-1.640;2023-03-29T10:36:23;15.80;99.90
76120;DHT22;64852;48.092;-1.640;2023-03-29T10:38:50;15.90;99.90
76120;DHT22;64852;48.092;-1.640;2023-03-29T10:41:17;16.00;99.90
76120;DHT22;64852;48.092;-1.640;2023-03-29T10:43:45;15.90;99.90
76120;DHT22;64852;48.092;-1.640;2023-03-29T10:46:18;15.90;99.90
76120;DHT22;64852;48.092;-1.640;2023-03-29T10:48:48;16.00;99.90
76120;DHT22;64852;48.092;-1.640;2023-03-29T10:51:15;15.80;99.90
76120;DHT22;64852;48.092;-1.640;2023-03-29T10:53:41;15.90;99.90
76120;DHT22;64852;48.092;-1.640;2023-03-29T10:56:28;16.00;99.90
76120;DHT22;64852;48.092;-1.640;2023-03-29T10:59:30;16.00;99.90
76120;DHT22;64852;48.092;-1.640;2023-03-29T11:09:17;16.50;99.90
76120;DHT22;64852;48.092;-1.640;2023-03-29T11:11:49;16.70;99.90
76120;DHT22;64852;48.092;-1.640;2023-03-29T11:19:50;15.90;99.90
76120;DHT22;64852;48.092;-1.640;2023-03-29T11:27:40;17.30;99.90
76120;DHT22;64852;48.092;-1.640;2023-03-29T11:30:21;17.30;99.90
76120;DHT22;64852;48.092;-1.640;2023-03-29T11:45:45;18.00;99.90
76120;DHT22;64852;48.092;-1.640;2023-03-29T11:48:19;18.10;99.90
76120;DHT22;64852;48.092;-1.640;2023-03-29T11:50:59;18.30;99.90
76120;DHT22;64852;48.092;-1.640;2023-03-29T11:53:34;18.40;99.90
76120;DHT22;64852;48.092;-1.640;2023-03-29T11:56:05;18.60;99.90
76120;DHT22;64852;48.092;-1.640;2023-03-29T11:58:33;18.70;99.90
76120;DHT22;64852;48.092;-1.640;2023-03-29T12:01:05;19.00;99.90
76120;DHT22;64852;48.092;-1.640;2023-03-29T12:03:43;19.10;99.90
76120;DHT22;64852;48.092;-1.640;2023-03-29T12:06:13;19.10;99.90
76120;DHT22;64852;48.092;-1.640;2023-03-29T12:08:42;19.20;92.10
76120;DHT22;64852;48.092;-1.640;2023-03-29T12:14:41;19.40;93.70
76120;DHT22;64852;48.092;-1.640;2023-03-29T12:17:00;19.60;99.90
76120;DHT22;64852;48.092;-1.640;2023-03-29T12:22:04;20.20;93.50
76120;DHT22;64852;48.092;-1.640;2023-03-29T12:24:32;20.00;76.70
76120;DHT22;64852;48.092;-1.640;2023-03-29T12:34:27;20.50;64.30
76120;DHT22;64852;48.092;-1.640;2023-03-29T12:39:34;20.80;59.40
76120;DHT22;64852;48.092;-1.640;2023-03-29T12:42:20;20.90;56.20
76120;DHT22;64852;48.092;-1.640;2023-03-29T12:44:50;20.90;54.50
76120;DHT22;64852;48.092;-1.640;2023-03-29T12:47:21;21.00;54.10
76120;DHT22;64852;48.092;-1.640;2023-03-29T12:49:51;20.80;51.80
76120;DHT22;64852;48.092;-1.640;2023-03-29T12:52:21;20.80;52.80
76120;DHT22;64852;48.092;-1.640;2023-03-29T12:54:54;20.90;54.20
76120;DHT22;64852;48.092;-1.640;2023-03-29T12:57:24;21.10;54.80
76120;DHT22;64852;48.092;-1.640;2023-03-29T12:59:51;21.10;49.90
76120;DHT22;64852;48.092;-1.640;2023-03-29T13:02:23;21.40;51.20
76120;DHT22;64852;48.092;-1.640;2023-03-29T13:04:56;21.60;55.00
76120;DHT22;64852;48.092;-1.640;2023-03-29T13:09:51;21.90;47.00
76120;DHT22;64852;48.092;-1.640;2023-03-29T13:14:44;21.70;45.70
76120;DHT22;64852;48.092;-1.640;2023-03-29T13:17:18;21.90;48.90
76120;DHT22;64852;48.092;-1.640;2023-03-29T13:20:10;22.20;46.00
76120;DHT22;64852;48.092;-1.640;2023-03-29T13:30:34;22.80;40.20
76120;DHT22;64852;48.092;-1.640;2023-03-29T13:35:57;23.70;40.30
76120;DHT22;64852;48.092;-1.640;2023-03-29T13:38:25;23.90;39.90
76120;DHT22;64852;48.092;-1.640;2023-03-29T13:46:05;24.20;40.10
76120;DHT22;64852;48.092;-1.640;2023-03-29T13:51:19;24.50;38.30
76120;DHT22;64852;48.092;-1.640;2023-03-29T13:53:48;24.50;38.40
76120;DHT22;64852;48.092;-1.640;2023-03-29T13:59:17;25.10;35.00
76120;DHT22;64852;48.092;-1.640;2023-03-29T14:01:56;24.60;37.70
76120;DHT22;64852;48.092;-1.640;2023-03-29T14:04:40;24.30;37.90
76120;DHT22;64852;48.092;-1.640;2023-03-29T14:07:09;24.30;36.60
76120;DHT22;64852;48.092;-1.640;2023-03-29T14:09:38;24.30;38.00
76120;DHT22;64852;48.092;-1.640;2023-03-29T14:12:05;24.60;36.70
76120;DHT22;64852;48.092;-1.640;2023-03-29T14:14:33;24.60;36.50
76120;DHT22;64852;48.092;-1.640;2023-03-29T14:17:00;24.50;38.40
76120;DHT22;64852;48.092;-1.640;2023-03-29T14:19:29;24.80;36.50
76120;DHT22;64852;48.092;-1.640;2023-03-29T14:21:56;24.70;36.00
76120;DHT22;64852;48.092;-1.640;2023-03-29T14:24:24;24.90;38.50
76120;DHT22;64852;48.092;-1.640;2023-03-29T14:26:51;25.00;36.80
76120;DHT22;64852;48.092;-1.640;2023-03-29T14:29:17;24.90;34.80
76120;DHT22;64852;48.092;-1.640;2023-03-29T14:31:42;25.00;36.50
76120;DHT22;64852;48.092;-1.640;2023-03-29T14:34:13;24.90;38.00
76120;DHT22;64852;48.092;-1.640;2023-03-29T14:36:39;25.40;36.70
76120;DHT22;64852;48.092;-1.640;2023-03-29T14:41:36;25.30;34.10
76120;DHT22;64852;48.092;-1.640;2023-03-29T14:44:03;25.70;37.40
76120;DHT22;64852;48.092;-1.640;2023-03-29T14:46:30;26.30;37.50
76120;DHT22;64852;48.092;-1.640;2023-03-29T14:48:55;26.50;34.40
76120;DHT22;64852;48.092;-1.640;2023-03-29T14:51:21;25.90;34.10
76120;DHT22;64852;48.092;-1.640;2023-03-29T14:53:51;25.60;33.80
76120;DHT22;64852;48.092;-1.640;2023-03-29T14:56:17;25.30;34.00
76120;DHT22;64852;48.092;-1.640;2023-03-29T14:58:48;25.50;34.50
76120;DHT22;64852;48.092;-1.640;2023-03-29T15:01:15;25.80;34.70
76120;DHT22;64852;48.092;-1.640;2023-03-29T15:03:55;25.50;34.80
76120;DHT22;64852;48.092;-1.640;2023-03-29T15:06:23;25.50;34.00
76120;DHT22;64852;48.092;-1.640;2023-03-29T15:08:49;25.00;33.80
76120;DHT22;64852;48.092;-1.640;2023-03-29T15:11:19;24.40;34.10
76120;DHT22;64852;48.092;-1.640;2023-03-29T15:13:46;24.60;35.20
76120;DHT22;64852;48.092;-1.640;2023-03-29T15:16:13;24.50;35.30
76120;DHT22;64852;48.092;-1.640;2023-03-29T15:18:40;24.20;35.70
76120;DHT22;64852;48.092;-1.640;2023-03-29T15:21:07;24.60;36.20
76120;DHT22;64852;48.092;-1.640;2023-03-29T15:23:33;23.80;36.70
76120;DHT22;64852;48.092;-1.640;2023-03-29T15:28:32;24.30;36.70
76120;DHT22;64852;48.092;-1.640;2023-03-29T15:30:59;24.70;37.30
76120;DHT22;64852;48.092;-1.640;2023-03-29T15:33:30;24.50;36.70
76120;DHT22;64852;48.092;-1.640;2023-03-29T15:35:56;24.60;36.60
76120;DHT22;64852;48.092;-1.640;2023-03-29T15:38:22;24.80;36.90
76120;DHT22;64852;48.092;-1.640;2023-03-29T15:40:47;24.90;37.20
76120;DHT22;64852;48.092;-1.640;2023-03-29T15:43:13;25.00;37.60
76120;DHT22;64852;48.092;-1.640;2023-03-29T15:45:38;24.90;36.50
76120;DHT22;64852;48.092;-1.640;2023-03-29T15:48:18;24.90;37.20
76120;DHT22;64852;48.092;-1.640;2023-03-29T15:50:44;24.90;37.10
76120;DHT22;64852;48.092;-1.640;2023-03-29T15:53:10;24.40;36.50
76120;DHT22;64852;48.092;-1.640;2023-03-29T15:55:38;24.00;37.80
76120;DHT22;64852;48.092;-1.640;2023-03-29T15:58:03;24.10;37.50
76120;DHT22;64852;48.092;-1.640;2023-03-29T16:00:29;23.90;37.20
76120;DHT22;64852;48.092;-1.640;2023-03-29T16:02:54;23.80;37.90
76120;DHT22;64852;48.092;-1.640;2023-03-29T16:05:20;23.30;38.00
76120;DHT22;64852;48.092;-1.640;2023-03-29T16:07:46;23.10;38.50
76120;DHT22;64852;48.092;-1.640;2023-03-29T16:10:11;22.80;38.40
76120;DHT22;64852;48.092;-1.640;2023-03-29T16:12:37;22.60;38.50
76120;DHT22;64852;48.092;-1.640;2023-03-29T16:15:07;22.10;38.90
76120;DHT22;64852;48.092;-1.640;2023-03-29T16:17:35;22.00;39.40
76120;DHT22;64852;48.092;-1.640;2023-03-29T16:20:00;21.60;40.00
76120;DHT22;64852;48.092;-1.640;2023-03-29T16:22:26;21.70;40.30
76120;DHT22;64852;48.092;-1.640;2023-03-29T16:24:53;21.60;40.20
76120;DHT22;64852;48.092;-1.640;2023-03-29T16:27:19;21.40;40.60
76120;DHT22;64852;48.092;-1.640;2023-03-29T16:29:44;21.20;41.70
76120;DHT22;64852;48.092;-1.640;2023-03-29T16:32:10;21.00;41.00
76120;DHT22;64852;48.092;-1.640;2023-03-29T16:34:35;20.80;41.50
76120;DHT22;64852;48.092;-1.640;2023-03-29T16:37:02;20.70;41.70
76120;DHT22;64852;48.092;-1.640;2023-03-29T16:39:28;20.60;42.20
76120;DHT22;64852;48.092;-1.640;2023-03-29T16:41:53;20.70;42.00
76120;DHT22;64852;48.092;-1.640;2023-03-29T16:44:19;20.70;41.90
76120;DHT22;64852;48.092;-1.640;2023-03-29T16:46:46;20.70;41.60
76120;DHT22;64852;48.092;-1.640;2023-03-29T16:49:13;20.30;42.10
76120;DHT22;64852;48.092;-1.640;2023-03-29T16:51:42;20.10;42.70
76120;DHT22;64852;48.092;-1.640;2023-03-29T16:54:08;20.20;43.20
76120;DHT22;64852;48.092;-1.640;2023-03-29T16:56:35;20.10;43.50
76120;DHT22;64852;48.092;-1.640;2023-03-29T16:59:01;19.90;44.00
76120;DHT22;64852;48.092;-1.640;2023-03-29T17:01:26;19.90;44.60
76120;DHT22;64852;48.092;-1.640;2023-03-29T17:03:53;19.70;45.30
76120;DHT22;64852;48.092;-1.640;2023-03-29T17:06:18;19.80;45.10
76120;DHT22;64852;48.092;-1.640;2023-03-29T17:08:44;19.80;45.30
76120;DHT22;64852;48.092;-1.640;2023-03-29T17:11:10;19.50;44.80
76120;DHT22;64852;48.092;-1.640;2023-03-29T17:13:36;19.90;44.90